sensor_id;sensor_type;location;lat;lon;timestamp;temperature;humidity
8487;DHT22;4280;50.534;8.708;2024-02-15T00:00:52;9.50;1.00
8487;DHT22;4280;50.534;8.708;2024-02-15T00:03:18;9.50;1.00
8487;DHT22;4280;50.534;8.708;2024-02-15T00:05:45;9.50;1.00
8487;DHT22;4280;50.534;8.708;2024-02-15T00:08:11;9.50;1.00
8487;DHT22;4280;50.534;8.708;2024-02-15T00:10:37;9.50;1.00
8487;DHT22;4280;50.534;8.708;2024-02-15T00:13:03;9.50;1.00
8487;DHT22;4280;50.534;8.708;2024-02-15T00:15:31;9.50;1.00
8487;DHT22;4280;50.534;8.708;2024-02-15T00:17:58;9.50;1.00
8487;DHT22;4280;50.534;8.708;2024-02-15T00:20:24;9.50;1.00
8487;DHT22;4280;50.534;8.708;2024-02-15T00:22:50;9.50;1.00
8487;DHT22;4280;50.534;8.708;2024-02-15T00:25:17;9.50;1.00
8487;DHT22;4280;50.534;8.708;2024-02-15T00:27:45;9.50;1.00
8487;DHT22;4280;50.534;8.708;2024-02-15T00:30:11;9.50;1.00
8487;DHT22;4280;50.534;8.708;2024-02-15T00:32:37;9.50;1.00
8487;DHT22;4280;50.534;8.708;2024-02-15T00:35:04;9.40;1.00
8487;DHT22;4280;50.534;8.708;2024-02-15T00:37:35;9.40;1.00
8487;DHT22;4280;50.534;8.708;2024-02-15T00:40:00;9.30;1.00
8487;DHT22;4280;50.534;8.708;2024-02-15T00:42:29;9.30;1.00
8487;DHT22;4280;50.534;8.708;2024-02-15T00:44:57;9.30;1.00
8487;DHT22;4280;50.534;8.708;2024-02-15T00:47:23;9.30;1.00
8487;DHT22;4280;50.534;8.708;2024-02-15T00:49:49;9.30;1.00
8487;DHT22;4280;50.534;8.708;2024-02-15T00:52:18;9.20;1.00
8487;DHT22;4280;50.534;8.708;2024-02-15T00:54:44;9.10;1.00
8487;DHT22;4280;50.534;8.708;2024-02-15T00:57:10;9.10;1.00
8487;DHT22;4280;50.534;8.708;2024-02-15T00:59:36;9.00;1.00
8487;DHT22;4280;50.534;8.708;2024-02-15T01:02:02;9.00;1.00
8487;DHT22;4280;50.534;8.708;2024-02-15T01:04:29;9.00;1.00
8487;DHT22;4280;50.534;8.708;2024-02-15T01:06:55;9.10;1.00
8487;DHT22;4280;50.534;8.708;2024-02-15T01:09:24;9.00;1.00
8487;DHT22;4280;50.534;8.708;2024-02-15T01:11:49;9.10;1.00
8487;DHT22;4280;50.534;8.708;2024-02-15T01:14:15;9.00;1.00
8487;DHT22;4280;50.534;8.708;2024-02-15T01:16:42;9.00;1.00
8487;DHT22;4280;50.534;8.708;2024-02-15T01:19:08;9.00;1.00
8487;DHT22;4280;50.534;8.708;2024-02-15T01:21:34;9.10;1.00
8487;DHT22;4280;50.534;8.708;2024-02-15T01:24:00;9.20;1.00
8487;DHT22;4280;50.534;8.708;2024-02-15T01:26:26;9.20;1.00
8487;DHT22;4280;50.534;8.708;2024-02-15T01:28:53;9.20;1.00
8487;DHT22;4280;50.534;8.708;2024-02-15T01:31:18;9.30;1.00
8487;DHT22;4280;50.534;8.708;2024-02-15T01:33:45;9.30;1.00
8487;DHT22;4280;50.534;8.708;2024-02-15T01:36:17;9.30;1.00
8487;DHT22;4280;50.534;8.708;2024-02-15T01:38:43;9.30;1.00
8487;DHT22;4280;50.534;8.708;2024-02-15T01:41:10;9.30;1.00
8487;DHT22;4280;50.534;8.708;2024-02-15T01:43:36;9.30;1.00
8487;DHT22;4280;50.534;8.708;2024-02-15T01:46:07;9.30;1.00
8487;DHT22;4280;50.534;8.708;2024-02-15T01:48:35;9.30;1.00
8487;DHT22;4280;50.534;8.708;2024-02-15T01:51:01;9.40;1.00
8487;DHT22;4280;50.534;8.708;2024-02-15T01:53:29;9.40;1.00
8487;DHT22;4280;50.534;8.708;2024-02-15T01:55:56;9.50;1.00
8487;DHT22;4280;50.534;8.708;2024-02-15T01:58:29;9.40;1.00
8487;DHT22;4280;50.534;8.708;2024-02-15T02:00:57;9.40;1.00
8487;DHT22;4280;50.534;8.708;2024-02-15T02:03:25;9.40;1.00
8487;DHT22;4280;50.534;8.708;2024-02-15T02:05:51;9.40;1.00
8487;DHT22;4280;50.534;8.708;2024-02-15T02:08:16;9.50;1.00
8487;DHT22;4280;50.534;8.708;2024-02-15T02:10:42;9.50;1.00
8487;DHT22;4280;50.534;8.708;2024-02-15T02:13:09;9.50;1.00
8487;DHT22;4280;50.534;8.708;2024-02-15T02:15:35;9.50;1.00
8487;DHT22;4280;50.534;8.708;2024-02-15T02:18:03;9.50;1.00
8487;DHT22;4280;50.534;8.708;2024-02-15T02:20:34;9.50;1.00
8487;DHT22;4280;50.534;8.708;2024-02-15T02:23:09;9.40;1.00
8487;DHT22;4280;50.534;8.708;2024-02-15T02:25:39;9.50;1.00
8487;DHT22;4280;50.534;8.708;2024-02-15T02:28:06;9.50;1.00
8487;DHT22;4280;50.534;8.708;2024-02-15T02:30:32;9.50;1.00
8487;DHT22;4280;50.534;8.708;2024-02-15T02:32:58;9.50;1.00
8487;DHT22;4280;50.534;8.708;2024-02-15T02:35:25;9.50;1.00
8487;DHT22;4280;50.534;8.708;2024-02-15T02:37:51;9.50;1.00
8487;DHT22;4280;50.534;8.708;2024-02-15T02:40:18;9.50;1.00
8487;DHT22;4280;50.534;8.708;2024-02-15T02:42:52;9.50;1.00
8487;DHT22;4280;50.534;8.708;2024-02-15T02:45:27;9.50;1.00
8487;DHT22;4280;50.534;8.708;2024-02-15T02:47:53;9.50;1.00
8487;DHT22;4280;50.534;8.708;2024-02-15T02:50:20;9.50;1.00
8487;DHT22;4280;50.534;8.708;2024-02-15T02:52:47;9.50;1.00
8487;DHT22;4280;50.534;8.708;2024-02-15T02:55:14;9.50;1.00
8487;DHT22;4280;50.534;8.708;2024-02-15T02:57:40;9.60;1.00
8487;DHT22;4280;50.534;8.708;2024-02-15T03:00:09;9.60;1.00
8487;DHT22;4280;50.534;8.708;2024-02-15T03:02:47;9.60;1.00
8487;DHT22;4280;50.534;8.708;2024-02-15T03:05:13;9.60;1.00
8487;DHT22;4280;50.534;8.708;2024-02-15T03:07:40;9.60;1.00
8487;DHT22;4280;50.534;8.708;2024-02-15T03:10:07;9.60;1.00
8487;DHT22;4280;50.534;8.708;2024-02-15T03:12:39;9.60;1.00
8487;DHT22;4280;50.534;8.708;2024-02-15T03:15:06;9.70;1.00
8487;DHT22;4280;50.534;8.708;2024-02-15T03:17:45;9.70;1.00
8487;DHT22;4280;50.534;8.708;2024-02-15T03:20:12;9.70;1.00
8487;DHT22;4280;50.534;8.708;2024-02-15T03:22:56;9.70;1.00
8487;DHT22;4280;50.534;8.708;2024-02-15T03:25:23;9.70;1.00
8487;DHT22;4280;50.534;8.708;2024-02-15T03:27:53;9.70;1.00
8487;DHT22;4280;50.534;8.708;2024-02-15T03:30:21;9.70;1.00
8487;DHT22;4280;50.534;8.708;2024-02-15T03:32:51;9.70;1.00
8487;DHT22;4280;50.534;8.708;2024-02-15T03:35:19;9.70;1.00
8487;DHT22;4280;50.534;8.708;2024-02-15T03:37:48;9.70;1.00
8487;DHT22;4280;50.534;8.708;2024-02-15T03:40:17;9.70;1.00
8487;DHT22;4280;50.534;8.708;2024-02-15T03:42:44;9.70;1.00
8487;DHT22;4280;50.534;8.708;2024-02-15T03:45:10;9.60;1.00
8487;DHT22;4280;50.534;8.708;2024-02-15T03:47:39;9.60;1.00
8487;DHT22;4280;50.534;8.708;2024-02-15T03:50:05;9.60;1.00
8487;DHT22;4280;50.534;8.708;2024-02-15T03:52:33;9.60;1.00
8487;DHT22;4280;50.534;8.708;2024-02-15T03:54:59;9.60;1.00
8487;DHT22;4280;50.534;8.708;2024-02-15T03:57:28;9.60;1.00
8487;DHT22;4280;50.534;8.708;2024-02-15T03:59:55;9.60;1.00
8487;DHT22;4280;50.534;8.708;2024-02-15T04:02:24;9.50;1.00
8487;DHT22;4280;50.534;8.708;2024-02-15T04:04:53;9.60;1.00
8487;DHT22;4280;50.534;8.708;2024-02-15T04:07:21;9.60;1.00
8487;DHT22;4280;50.534;8.708;2024-02-15T04:09:52;9.50;1.00
8487;DHT22;4280;50.534;8.708;2024-02-15T04:12:18;9.50;1.00
8487;DHT22;4280;50.534;8.708;2024-02-15T04:14:44;9.50;1.00
8487;DHT22;4280;50.534;8.708;2024-02-15T04:17:11;9.50;1.00
8487;DHT22;4280;50.534;8.708;2024-02-15T04:19:39;9.50;1.00
8487;DHT22;4280;50.534;8.708;2024-02-15T04:22:05;9.50;1.00
8487;DHT22;4280;50.534;8.708;2024-02-15T04:24:33;9.50;1.00
8487;DHT22;4280;50.534;8.708;2024-02-15T04:27:00;9.50;1.00
8487;DHT22;4280;50.534;8.708;2024-02-15T04:29:26;9.50;1.00
8487;DHT22;4280;50.534;8.708;2024-02-15T04:31:51;9.50;1.00
8487;DHT22;4280;50.534;8.708;2024-02-15T04:34:19;9.50;1.00
8487;DHT22;4280;50.534;8.708;2024-02-15T04:36:48;9.50;1.00
8487;DHT22;4280;50.534;8.708;2024-02-15T04:39:16;9.50;1.00
8487;DHT22;4280;50.534;8.708;2024-02-15T04:41:53;9.50;1.00
8487;DHT22;4280;50.534;8.708;2024-02-15T04:44:19;9.50;1.00
8487;DHT22;4280;50.534;8.708;2024-02-15T04:46:52;9.50;1.00
8487;DHT22;4280;50.534;8.708;2024-02-15T04:49:19;9.50;1.00
8487;DHT22;4280;50.534;8.708;2024-02-15T04:51:45;9.50;1.00
8487;DHT22;4280;50.534;8.708;2024-02-15T04:54:12;9.50;1.00
8487;DHT22;4280;50.534;8.708;2024-02-15T04:56:39;9.40;1.00
8487;DHT22;4280;50.534;8.708;2024-02-15T04:59:05;9.50;1.00
8487;DHT22;4280;50.534;8.708;2024-02-15T05:01:34;9.50;1.00
8487;DHT22;4280;50.534;8.708;2024-02-15T05:04:01;9.40;1.00
8487;DHT22;4280;50.534;8.708;2024-02-15T05:06:29;9.40;1.00
8487;DHT22;4280;50.534;8.708;2024-02-15T05:08:55;9.40;1.00
8487;DHT22;4280;50.534;8.708;2024-02-15T05:11:23;9.40;1.00
8487;DHT22;4280;50.534;8.708;2024-02-15T05:13:48;9.40;1.00
8487;DHT22;4280;50.534;8.708;2024-02-15T05:16:16;9.40;1.00
8487;DHT22;4280;50.534;8.708;2024-02-15T05:18:42;9.50;1.00
8487;DHT22;4280;50.534;8.708;2024-02-15T05:21:08;9.50;1.00
8487;DHT22;4280;50.534;8.708;2024-02-15T05:23:35;9.50;1.00
8487;DHT22;4280;50.534;8.708;2024-02-15T05:26:02;9.50;1.00
8487;DHT22;4280;50.534;8.708;2024-02-15T05:28:29;9.50;1.00
8487;DHT22;4280;50.534;8.708;2024-02-15T05:31:15;9.50;1.00
8487;DHT22;4280;50.534;8.708;2024-02-15T05:33:44;9.40;1.00
8487;DHT22;4280;50.534;8.708;2024-02-15T05:36:11;9.50;1.00
8487;DHT22;4280;50.534;8.708;2024-02-15T05:38:37;9.50;1.00
8487;DHT22;4280;50.534;8.708;2024-02-15T05:41:03;9.50;1.00
8487;DHT22;4280;50.534;8.708;2024-02-15T05:43:29;9.50;1.00
8487;DHT22;4280;50.534;8.708;2024-02-15T05:45:55;9.50;1.00
8487;DHT22;4280;50.534;8.708;2024-02-15T05:48:23;9.60;1.00
8487;DHT22;4280;50.534;8.708;2024-02-15T05:50:49;9.60;1.00
8487;DHT22;4280;50.534;8.708;2024-02-15T05:53:14;9.60;1.00
8487;DHT22;4280;50.534;8.708;2024-02-15T05:55:40;9.60;1.00
8487;DHT22;4280;50.534;8.708;2024-02-15T05:58:09;9.60;1.00
8487;DHT22;4280;50.534;8.708;2024-02-15T06:00:37;9.60;1.00
8487;DHT22;4280;50.534;8.708;2024-02-15T06:03:04;9.60;1.00
8487;DHT22;4280;50.534;8.708;2024-02-15T06:05:31;9.70;1.00
8487;DHT22;4280;50.534;8.708;2024-02-15T06:07:58;9.70;1.00
8487;DHT22;4280;50.534;8.708;2024-02-15T06:10:24;9.60;1.00
8487;DHT22;4280;50.534;8.708;2024-02-15T06:12:51;9.60;1.00
8487;DHT22;4280;50.534;8.708;2024-02-15T06:15:17;9.60;1.00
8487;DHT22;4280;50.534;8.708;2024-02-15T06:17:43;9.60;1.00
8487;DHT22;4280;50.534;8.708;2024-02-15T06:20:15;9.60;1.00
8487;DHT22;4280;50.534;8.708;2024-02-15T06:22:43;9.50;1.00
8487;DHT22;4280;50.534;8.708;2024-02-15T06:25:09;9.50;1.00
8487;DHT22;4280;50.534;8.708;2024-02-15T06:27:37;9.50;1.00
8487;DHT22;4280;50.534;8.708;2024-02-15T06:30:07;9.50;1.00
8487;DHT22;4280;50.534;8.708;2024-02-15T06:32:57;9.50;1.00
8487;DHT22;4280;50.534;8.708;2024-02-15T06:35:42;9.50;1.00
8487;DHT22;4280;50.534;8.708;2024-02-15T06:38:26;9.50;1.00
8487;DHT22;4280;50.534;8.708;2024-02-15T06:41:12;9.50;1.00
8487;DHT22;4280;50.534;8.708;2024-02-15T06:43:38;9.50;1.00
8487;DHT22;4280;50.534;8.708;2024-02-15T06:46:08;9.50;1.00
8487;DHT22;4280;50.534;8.708;2024-02-15T06:48:34;9.60;1.00
8487;DHT22;4280;50.534;8.708;2024-02-15T06:50:59;9.60;1.00
8487;DHT22;4280;50.534;8.708;2024-02-15T06:53:25;9.60;1.00
8487;DHT22;4280;50.534;8.708;2024-02-15T06:55:51;9.60;1.00
8487;DHT22;4280;50.534;8.708;2024-02-15T06:58:17;9.60;1.00
8487;DHT22;4280;50.534;8.708;2024-02-15T07:00:44;9.70;1.00
8487;DHT22;4280;50.534;8.708;2024-02-15T07:03:10;9.70;1.00
8487;DHT22;4280;50.534;8.708;2024-02-15T07:05:38;9.70;1.00
8487;DHT22;4280;50.534;8.708;2024-02-15T07:08:05;9.70;1.00
8487;DHT22;4280;50.534;8.708;2024-02-15T07:10:31;9.70;1.00
8487;DHT22;4280;50.534;8.708;2024-02-15T07:12:57;9.70;1.00
8487;DHT22;4280;50.534;8.708;2024-02-15T07:15:23;9.80;1.00
8487;DHT22;4280;50.534;8.708;2024-02-15T07:17:48;9.80;1.00
8487;DHT22;4280;50.534;8.708;2024-02-15T07:20:14;9.80;1.00
8487;DHT22;4280;50.534;8.708;2024-02-15T07:22:43;9.90;1.00
8487;DHT22;4280;50.534;8.708;2024-02-15T07:25:10;9.90;1.00
8487;DHT22;4280;50.534;8.708;2024-02-15T07:27:36;9.90;1.00
8487;DHT22;4280;50.534;8.708;2024-02-15T07:30:02;10.00;1.00
8487;DHT22;4280;50.534;8.708;2024-02-15T07:32:31;10.00;1.00
8487;DHT22;4280;50.534;8.708;2024-02-15T07:34:57;10.00;1.00
8487;DHT22;4280;50.534;8.708;2024-02-15T07:37:23;10.10;1.00
8487;DHT22;4280;50.534;8.708;2024-02-15T07:39:52;10.10;1.00
8487;DHT22;4280;50.534;8.708;2024-02-15T07:42:20;10.10;1.00
8487;DHT22;4280;50.534;8.708;2024-02-15T07:44:51;10.20;1.00
8487;DHT22;4280;50.534;8.708;2024-02-15T07:47:18;10.20;1.00
8487;DHT22;4280;50.534;8.708;2024-02-15T07:49:46;10.20;1.00
8487;DHT22;4280;50.534;8.708;2024-02-15T07:52:12;10.20;1.00
8487;DHT22;4280;50.534;8.708;2024-02-15T07:54:39;10.20;1.00
8487;DHT22;4280;50.534;8.708;2024-02-15T07:57:05;10.30;1.00
8487;DHT22;4280;50.534;8.708;2024-02-15T07:59:33;10.30;1.00
8487;DHT22;4280;50.534;8.708;2024-02-15T08:02:01;10.30;1.00
8487;DHT22;4280;50.534;8.708;2024-02-15T08:04:26;10.30;1.00
8487;DHT22;4280;50.534;8.708;2024-02-15T08:06:54;10.40;1.00
8487;DHT22;4280;50.534;8.708;2024-02-15T08:09:20;10.40;1.00
8487;DHT22;4280;50.534;8.708;2024-02-15T08:11:49;10.40;1.00
8487;DHT22;4280;50.534;8.708;2024-02-15T08:14:15;10.50;1.00
8487;DHT22;4280;50.534;8.708;2024-02-15T08:16:41;10.50;1.00
8487;DHT22;4280;50.534;8.708;2024-02-15T08:19:07;10.60;1.00
8487;DHT22;4280;50.534;8.708;2024-02-15T08:21:34;10.60;1.00
8487;DHT22;4280;50.534;8.708;2024-02-15T08:24:05;10.60;1.00
8487;DHT22;4280;50.534;8.708;2024-02-15T08:26:36;10.60;1.00
8487;DHT22;4280;50.534;8.708;2024-02-15T08:29:07;10.70;1.00
8487;DHT22;4280;50.534;8.708;2024-02-15T08:31:33;10.70;1.00
8487;DHT22;4280;50.534;8.708;2024-02-15T08:34:02;10.80;1.00
8487;DHT22;4280;50.534;8.708;2024-02-15T08:36:30;10.90;1.00
8487;DHT22;4280;50.534;8.708;2024-02-15T08:38:56;11.00;1.00
8487;DHT22;4280;50.534;8.708;2024-02-15T08:41:22;11.00;1.00
8487;DHT22;4280;50.534;8.708;2024-02-15T08:43:52;11.00;1.00
8487;DHT22;4280;50.534;8.708;2024-02-15T08:46:18;11.10;1.00
8487;DHT22;4280;50.534;8.708;2024-02-15T08:48:45;11.10;1.00
8487;DHT22;4280;50.534;8.708;2024-02-15T08:51:12;11.10;1.00
8487;DHT22;4280;50.534;8.708;2024-02-15T08:53:38;11.10;1.00
8487;DHT22;4280;50.534;8.708;2024-02-15T08:56:06;11.10;1.00
8487;DHT22;4280;50.534;8.708;2024-02-15T08:58:35;11.10;1.00
8487;DHT22;4280;50.534;8.708;2024-02-15T09:01:01;11.20;1.00
8487;DHT22;4280;50.534;8.708;2024-02-15T09:03:28;11.20;1.00
8487;DHT22;4280;50.534;8.708;2024-02-15T09:05:54;11.20;1.00
8487;DHT22;4280;50.534;8.708;2024-02-15T09:08:19;11.20;1.00
8487;DHT22;4280;50.534;8.708;2024-02-15T09:10:47;11.30;1.00
8487;DHT22;4280;50.534;8.708;2024-02-15T09:13:14;11.30;1.00
8487;DHT22;4280;50.534;8.708;2024-02-15T09:15:40;11.30;1.00
8487;DHT22;4280;50.534;8.708;2024-02-15T09:18:07;11.50;1.00
8487;DHT22;4280;50.534;8.708;2024-02-15T09:20:35;11.50;1.00
8487;DHT22;4280;50.534;8.708;2024-02-15T09:23:03;11.60;1.00
8487;DHT22;4280;50.534;8.708;2024-02-15T09:25:37;11.50;1.00
8487;DHT22;4280;50.534;8.708;2024-02-15T09:28:03;11.50;1.00
8487;DHT22;4280;50.534;8.708;2024-02-15T09:30:29;11.50;1.00
8487;DHT22;4280;50.534;8.708;2024-02-15T09:32:57;11.70;1.00
8487;DHT22;4280;50.534;8.708;2024-02-15T09:35:23;11.80;1.00
8487;DHT22;4280;50.534;8.708;2024-02-15T09:37:49;11.80;1.00
8487;DHT22;4280;50.534;8.708;2024-02-15T09:40:16;11.90;1.00
8487;DHT22;4280;50.534;8.708;2024-02-15T09:42:44;12.10;1.00
8487;DHT22;4280;50.534;8.708;2024-02-15T09:45:12;12.10;1.00
8487;DHT22;4280;50.534;8.708;2024-02-15T09:47:38;12.20;1.00
8487;DHT22;4280;50.534;8.708;2024-02-15T09:50:08;12.40;1.00
8487;DHT22;4280;50.534;8.708;2024-02-15T09:52:52;12.30;1.00
8487;DHT22;4280;50.534;8.708;2024-02-15T09:55:20;12.30;1.00
8487;DHT22;4280;50.534;8.708;2024-02-15T09:57:49;12.30;1.00
8487;DHT22;4280;50.534;8.708;2024-02-15T10:00:16;12.30;1.00
8487;DHT22;4280;50.534;8.708;2024-02-15T10:02:48;12.30;1.00
8487;DHT22;4280;50.534;8.708;2024-02-15T10:05:17;12.40;1.00
8487;DHT22;4280;50.534;8.708;2024-02-15T10:07:44;12.40;1.00
8487;DHT22;4280;50.534;8.708;2024-02-15T10:10:20;12.50;1.00
8487;DHT22;4280;50.534;8.708;2024-02-15T10:12:47;12.70;1.00
8487;DHT22;4280;50.534;8.708;2024-02-15T10:15:37;12.90;1.00
8487;DHT22;4280;50.534;8.708;2024-02-15T10:20:38;13.00;1.00
8487;DHT22;4280;50.534;8.708;2024-02-15T10:25:34;13.10;1.00
8487;DHT22;4280;50.534;8.708;2024-02-15T10:28:11;13.30;1.00
8487;DHT22;4280;50.534;8.708;2024-02-15T10:30:39;13.10;1.00
8487;DHT22;4280;50.534;8.708;2024-02-15T10:33:08;13.10;1.00
8487;DHT22;4280;50.534;8.708;2024-02-15T10:35:35;13.10;1.00
8487;DHT22;4280;50.534;8.708;2024-02-15T10:38:11;13.20;1.00
8487;DHT22;4280;50.534;8.708;2024-02-15T10:40:39;13.40;1.00
8487;DHT22;4280;50.534;8.708;2024-02-15T10:43:09;13.40;1.00
8487;DHT22;4280;50.534;8.708;2024-02-15T10:45:39;13.40;1.00
8487;DHT22;4280;50.534;8.708;2024-02-15T10:48:08;13.40;1.00
8487;DHT22;4280;50.534;8.708;2024-02-15T10:50:34;13.60;1.00
8487;DHT22;4280;50.534;8.708;2024-02-15T10:53:08;13.70;1.00
8487;DHT22;4280;50.534;8.708;2024-02-15T10:58:40;13.60;1.00
8487;DHT22;4280;50.534;8.708;2024-02-15T11:01:17;14.00;1.00
8487;DHT22;4280;50.534;8.708;2024-02-15T11:04:00;14.20;1.00
8487;DHT22;4280;50.534;8.708;2024-02-15T11:06:35;14.20;1.00
8487;DHT22;4280;50.534;8.708;2024-02-15T11:09:01;14.20;1.00
8487;DHT22;4280;50.534;8.708;2024-02-15T11:11:30;14.00;1.00
8487;DHT22;4280;50.534;8.708;2024-02-15T11:14:22;14.10;1.00
8487;DHT22;4280;50.534;8.708;2024-02-15T11:16:52;14.10;1.00
8487;DHT22;4280;50.534;8.708;2024-02-15T11:22:09;13.90;1.00
8487;DHT22;4280;50.534;8.708;2024-02-15T11:24:36;13.90;1.00
8487;DHT22;4280;50.534;8.708;2024-02-15T11:27:03;13.90;1.00
8487;DHT22;4280;50.534;8.708;2024-02-15T11:29:50;14.00;1.00
8487;DHT22;4280;50.534;8.708;2024-02-15T11:32:40;13.80;1.00
8487;DHT22;4280;50.534;8.708;2024-02-15T11:35:12;13.90;1.00
8487;DHT22;4280;50.534;8.708;2024-02-15T11:40:17;13.80;1.00
8487;DHT22;4280;50.534;8.708;2024-02-15T11:42:44;13.80;1.00
8487;DHT22;4280;50.534;8.708;2024-02-15T11:45:12;13.90;1.00
8487;DHT22;4280;50.534;8.708;2024-02-15T11:47:39;14.10;1.00
8487;DHT22;4280;50.534;8.708;2024-02-15T11:50:09;14.00;1.00
8487;DHT22;4280;50.534;8.708;2024-02-15T11:52:44;14.10;1.00
8487;DHT22;4280;50.534;8.708;2024-02-15T11:55:11;14.10;1.00
8487;DHT22;4280;50.534;8.708;2024-02-15T11:57:41;14.20;1.00
8487;DHT22;4280;50.534;8.708;2024-02-15T12:00:24;14.30;1.00
8487;DHT22;4280;50.534;8.708;2024-02-15T12:03:09;14.40;1.00
8487;DHT22;4280;50.534;8.708;2024-02-15T12:05:57;14.70;1.00
8487;DHT22;4280;50.534;8.708;2024-02-15T12:08:45;14.70;1.00
8487;DHT22;4280;50.534;8.708;2024-02-15T12:11:30;14.60;1.00
8487;DHT22;4280;50.534;8.708;2024-02-15T12:14:16;14.40;1.00
8487;DHT22;4280;50.534;8.708;2024-02-15T12:17:01;14.40;1.00
8487;DHT22;4280;50.534;8.708;2024-02-15T12:19:47;14.40;1.00
8487;DHT22;4280;50.534;8.708;2024-02-15T12:22:21;14.60;1.00
8487;DHT22;4280;50.534;8.708;2024-02-15T12:25:14;14.70;1.00
8487;DHT22;4280;50.534;8.708;2024-02-15T12:27:42;14.80;1.00
8487;DHT22;4280;50.534;8.708;2024-02-15T12:30:16;14.50;1.00
8487;DHT22;4280;50.534;8.708;2024-02-15T12:32:51;14.60;1.00
8487;DHT22;4280;50.534;8.708;2024-02-15T12:35:19;14.40;1.00
8487;DHT22;4280;50.534;8.708;2024-02-15T12:37:46;14.40;1.00
8487;DHT22;4280;50.534;8.708;2024-02-15T12:40:20;14.30;1.00
8487;DHT22;4280;50.534;8.708;2024-02-15T12:42:47;14.30;1.00
8487;DHT22;4280;50.534;8.708;2024-02-15T12:45:17;14.30;1.00
8487;DHT22;4280;50.534;8.708;2024-02-15T12:47:49;14.40;1.00
8487;DHT22;4280;50.534;8.708;2024-02-15T12:50:36;14.40;1.00
8487;DHT22;4280;50.534;8.708;2024-02-15T12:53:02;14.50;1.00
8487;DHT22;4280;50.534;8.708;2024-02-15T12:55:35;14.60;1.00
8487;DHT22;4280;50.534;8.708;2024-02-15T12:58:06;14.50;1.00
8487;DHT22;4280;50.534;8.708;2024-02-15T13:00:38;14.50;1.00
8487;DHT22;4280;50.534;8.708;2024-02-15T13:03:06;14.60;1.00
8487;DHT22;4280;50.534;8.708;2024-02-15T13:05:37;14.70;1.00
8487;DHT22;4280;50.534;8.708;2024-02-15T13:08:03;14.60;1.00
8487;DHT22;4280;50.534;8.708;2024-02-15T13:10:36;14.70;1.00
8487;DHT22;4280;50.534;8.708;2024-02-15T13:13:02;14.70;1.00
8487;DHT22;4280;50.534;8.708;2024-02-15T13:15:27;14.60;1.00
8487;DHT22;4280;50.534;8.708;2024-02-15T13:17:58;14.50;1.00
8487;DHT22;4280;50.534;8.708;2024-02-15T13:20:25;14.50;1.00
8487;DHT22;4280;50.534;8.708;2024-02-15T13:22:59;14.40;1.00
8487;DHT22;4280;50.534;8.708;2024-02-15T13:25:34;14.40;1.00
8487;DHT22;4280;50.534;8.708;2024-02-15T13:28:02;14.40;1.00
8487;DHT22;4280;50.534;8.708;2024-02-15T13:30:29;14.50;1.00
8487;DHT22;4280;50.534;8.708;2024-02-15T13:32:55;14.30;1.00
8487;DHT22;4280;50.534;8.708;2024-02-15T13:35:21;14.30;1.00
8487;DHT22;4280;50.534;8.708;2024-02-15T13:37:52;14.20;1.00
8487;DHT22;4280;50.534;8.708;2024-02-15T13:40:19;14.30;1.00
8487;DHT22;4280;50.534;8.708;2024-02-15T13:42:55;14.30;1.00
8487;DHT22;4280;50.534;8.708;2024-02-15T13:45:28;14.20;1.00
8487;DHT22;4280;50.534;8.708;2024-02-15T13:47:59;14.20;1.00
8487;DHT22;4280;50.534;8.708;2024-02-15T13:50:28;14.30;1.00
8487;DHT22;4280;50.534;8.708;2024-02-15T13:52:55;14.40;1.00
8487;DHT22;4280;50.534;8.708;2024-02-15T13:55:21;14.40;1.00
8487;DHT22;4280;50.534;8.708;2024-02-15T13:57:47;14.30;1.00
8487;DHT22;4280;50.534;8.708;2024-02-15T14:00:17;14.30;1.00
8487;DHT22;4280;50.534;8.708;2024-02-15T14:02:54;14.30;1.00
8487;DHT22;4280;50.534;8.708;2024-02-15T14:05:22;14.40;1.00
8487;DHT22;4280;50.534;8.708;2024-02-15T14:07:53;14.30;1.00
8487;DHT22;4280;50.534;8.708;2024-02-15T14:10:30;14.40;1.00
8487;DHT22;4280;50.534;8.708;2024-02-15T14:12:57;14.40;1.00
8487;DHT22;4280;50.534;8.708;2024-02-15T14:15:49;14.40;1.00
8487;DHT22;4280;50.534;8.708;2024-02-15T14:18:15;14.50;1.00
8487;DHT22;4280;50.534;8.708;2024-02-15T14:20:44;14.50;1.00
8487;DHT22;4280;50.534;8.708;2024-02-15T14:23:14;14.40;1.00
8487;DHT22;4280;50.534;8.708;2024-02-15T14:25:40;14.40;1.00
8487;DHT22;4280;50.534;8.708;2024-02-15T14:28:06;14.30;1.00
8487;DHT22;4280;50.534;8.708;2024-02-15T14:30:35;14.30;1.00
8487;DHT22;4280;50.534;8.708;2024-02-15T14:33:20;14.40;1.00
8487;DHT22;4280;50.534;8.708;2024-02-15T14:35:48;14.30;1.00
8487;DHT22;4280;50.534;8.708;2024-02-15T14:38:14;14.40;1.00
8487;DHT22;4280;50.534;8.708;2024-02-15T14:40:43;14.40;1.00
8487;DHT22;4280;50.534;8.708;2024-02-15T14:43:16;14.30;1.00
8487;DHT22;4280;50.534;8.708;2024-02-15T14:45:43;14.30;1.00
8487;DHT22;4280;50.534;8.708;2024-02-15T14:48:09;14.30;1.00
8487;DHT22;4280;50.534;8.708;2024-02-15T14:50:39;14.20;1.00
8487;DHT22;4280;50.534;8.708;2024-02-15T14:53:05;14.20;1.00
8487;DHT22;4280;50.534;8.708;2024-02-15T14:55:33;14.10;1.00
8487;DHT22;4280;50.534;8.708;2024-02-15T14:57:59;14.10;1.00
8487;DHT22;4280;50.534;8.708;2024-02-15T15:00:25;14.10;1.00
8487;DHT22;4280;50.534;8.708;2024-02-15T15:02:53;14.00;1.00
8487;DHT22;4280;50.534;8.708;2024-02-15T15:05:22;13.90;1.00
8487;DHT22;4280;50.534;8.708;2024-02-15T15:08:06;13.90;1.00
8487;DHT22;4280;50.534;8.708;2024-02-15T15:10:51;13.80;1.00
8487;DHT22;4280;50.534;8.708;2024-02-15T15:13:35;13.70;1.00
8487;DHT22;4280;50.534;8.708;2024-02-15T15:16:02;13.70;1.00
8487;DHT22;4280;50.534;8.708;2024-02-15T15:18:31;13.70;1.00
8487;DHT22;4280;50.534;8.708;2024-02-15T15:20:57;13.60;1.00
8487;DHT22;4280;50.534;8.708;2024-02-15T15:23:24;13.70;1.00
8487;DHT22;4280;50.534;8.708;2024-02-15T15:25:51;13.70;1.00
8487;DHT22;4280;50.534;8.708;2024-02-15T15:28:17;13.60;1.00
8487;DHT22;4280;50.534;8.708;2024-02-15T15:30:44;13.50;1.00
8487;DHT22;4280;50.534;8.708;2024-02-15T15:33:14;13.50;1.00
8487;DHT22;4280;50.534;8.708;2024-02-15T15:35:40;13.40;1.00
8487;DHT22;4280;50.534;8.708;2024-02-15T15:38:06;13.40;1.00
8487;DHT22;4280;50.534;8.708;2024-02-15T15:40:32;13.30;1.00
8487;DHT22;4280;50.534;8.708;2024-02-15T15:42:58;13.30;1.00
8487;DHT22;4280;50.534;8.708;2024-02-15T15:45:24;13.20;1.00
8487;DHT22;4280;50.534;8.708;2024-02-15T15:47:50;13.20;1.00
8487;DHT22;4280;50.534;8.708;2024-02-15T15:50:16;13.10;1.00
8487;DHT22;4280;50.534;8.708;2024-02-15T15:52:42;13.00;1.00
8487;DHT22;4280;50.534;8.708;2024-02-15T15:55:10;13.00;1.00
8487;DHT22;4280;50.534;8.708;2024-02-15T15:57:42;12.90;1.00
8487;DHT22;4280;50.534;8.708;2024-02-15T16:00:09;12.90;1.00
8487;DHT22;4280;50.534;8.708;2024-02-15T16:02:46;12.90;1.00
8487;DHT22;4280;50.534;8.708;2024-02-15T16:05:12;12.90;1.00
8487;DHT22;4280;50.534;8.708;2024-02-15T16:07:39;12.90;1.00
8487;DHT22;4280;50.534;8.708;2024-02-15T16:10:08;13.00;1.00
8487;DHT22;4280;50.534;8.708;2024-02-15T16:12:38;13.00;1.00
8487;DHT22;4280;50.534;8.708;2024-02-15T16:15:05;12.90;1.00
8487;DHT22;4280;50.534;8.708;2024-02-15T16:17:36;12.90;1.00
8487;DHT22;4280;50.534;8.708;2024-02-15T16:20:09;12.80;1.00
8487;DHT22;4280;50.534;8.708;2024-02-15T16:22:36;12.70;1.00
8487;DHT22;4280;50.534;8.708;2024-02-15T16:25:03;12.60;1.00
8487;DHT22;4280;50.534;8.708;2024-02-15T16:27:35;12.60;1.00
8487;DHT22;4280;50.534;8.708;2024-02-15T16:30:06;12.60;1.00
8487;DHT22;4280;50.534;8.708;2024-02-15T16:32:36;12.60;1.00
8487;DHT22;4280;50.534;8.708;2024-02-15T16:35:03;12.50;1.00
8487;DHT22;4280;50.534;8.708;2024-02-15T16:37:39;12.40;1.00
8487;DHT22;4280;50.534;8.708;2024-02-15T16:40:12;12.30;1.00
8487;DHT22;4280;50.534;8.708;2024-02-15T16:42:41;12.30;1.00
8487;DHT22;4280;50.534;8.708;2024-02-15T16:45:11;12.30;1.00
8487;DHT22;4280;50.534;8.708;2024-02-15T16:47:40;12.30;1.00
8487;DHT22;4280;50.534;8.708;2024-02-15T16:50:08;12.30;1.00